sensor_id;sensor_type;location;lat;lon;timestamp;P1;durP1;ratioP1;P2;durP2;ratioP2
52650;SDS011;38537;47.226;39.702;2023-07-08T00:02:14;19.50;;;4.60;;
52650;SDS011;38537;47.226;39.702;2023-07-08T00:04:41;14.95;;;4.57;;
52650;SDS011;38537;47.226;39.702;2023-07-08T00:07:11;14.40;;;4.25;;
52650;SDS011;38537;47.226;39.702;2023-07-08T00:09:41;17.65;;;4.72;;
52650;SDS011;38537;47.226;39.702;2023-07-08T00:12:10;17.85;;;4.68;;
52650;SDS011;38537;47.226;39.702;2023-07-08T00:14:38;16.67;;;4.32;;
52650;SDS011;38537;47.226;39.702;2023-07-08T00:17:11;18.10;;;4.78;;
52650;SDS011;38537;47.226;39.702;2023-07-08T00:19:40;16.40;;;4.32;;
52650;SDS011;38537;47.226;39.702;2023-07-08T00:22:08;17.63;;;4.55;;
52650;SDS011;38537;47.226;39.702;2023-07-08T00:24:43;12.17;;;4.17;;
52650;SDS011;38537;47.226;39.702;2023-07-08T00:27:12;22.45;;;4.43;;
52650;SDS011;38537;47.226;39.702;2023-07-08T00:29:40;19.70;;;4.68;;
52650;SDS011;38537;47.226;39.702;2023-07-08T00:32:11;20.08;;;4.50;;
52650;SDS011;38537;47.226;39.702;2023-07-08T00:34:40;19.92;;;5.45;;
52650;SDS011;38537;47.226;39.702;2023-07-08T00:37:13;19.15;;;4.72;;
52650;SDS011;38537;47.226;39.702;2023-07-08T00:39:40;18.65;;;5.70;;
52650;SDS011;38537;47.226;39.702;2023-07-08T00:42:14;21.88;;;8.63;;
52650;SDS011;38537;47.226;39.702;2023-07-08T00:44:51;23.15;;;11.48;;
52650;SDS011;38537;47.226;39.702;2023-07-08T00:47:19;31.00;;;17.48;;
52650;SDS011;38537;47.226;39.702;2023-07-08T00:49:54;36.88;;;20.02;;
52650;SDS011;38537;47.226;39.702;2023-07-08T00:52:26;38.33;;;19.40;;
52650;SDS011;38537;47.226;39.702;2023-07-08T00:54:56;25.40;;;11.27;;
52650;SDS011;38537;47.226;39.702;2023-07-08T00:57:27;28.02;;;13.60;;
52650;SDS011;38537;47.226;39.702;2023-07-08T01:00:01;18.80;;;7.35;;
52650;SDS011;38537;47.226;39.702;2023-07-08T01:05:08;21.48;;;6.28;;
52650;SDS011;38537;47.226;39.702;2023-07-08T01:07:38;15.18;;;4.90;;
52650;SDS011;38537;47.226;39.702;2023-07-08T01:10:12;16.27;;;4.72;;
52650;SDS011;38537;47.226;39.702;2023-07-08T01:12:45;19.20;;;4.95;;
52650;SDS011;38537;47.226;39.702;2023-07-08T01:15:18;13.52;;;5.10;;
52650;SDS011;38537;47.226;39.702;2023-07-08T01:17:51;18.20;;;4.85;;
52650;SDS011;38537;47.226;39.702;2023-07-08T01:20:20;18.13;;;4.65;;
52650;SDS011;38537;47.226;39.702;2023-07-08T01:22:48;13.07;;;5.00;;
52650;SDS011;38537;47.226;39.702;2023-07-08T01:25:17;16.27;;;4.70;;
52650;SDS011;38537;47.226;39.702;2023-07-08T01:27:45;15.10;;;4.90;;
52650;SDS011;38537;47.226;39.702;2023-07-08T01:30:16;18.95;;;4.88;;
52650;SDS011;38537;47.226;39.702;2023-07-08T01:32:45;15.00;;;4.88;;
52650;SDS011;38537;47.226;39.702;2023-07-08T01:35:16;14.27;;;5.18;;
52650;SDS011;38537;47.226;39.702;2023-07-08T01:37:47;19.35;;;5.45;;
52650;SDS011;38537;47.226;39.702;2023-07-08T01:42:46;20.40;;;5.63;;
52650;SDS011;38537;47.226;39.702;2023-07-08T01:45:14;15.07;;;4.93;;
52650;SDS011;38537;47.226;39.702;2023-07-08T01:47:45;16.67;;;4.97;;
52650;SDS011;38537;47.226;39.702;2023-07-08T01:50:18;12.57;;;4.80;;
52650;SDS011;38537;47.226;39.702;2023-07-08T01:52:48;13.63;;;4.55;;
52650;SDS011;38537;47.226;39.702;2023-07-08T01:55:23;18.30;;;4.80;;
52650;SDS011;38537;47.226;39.702;2023-07-08T01:57:52;18.07;;;4.80;;
52650;SDS011;38537;47.226;39.702;2023-07-08T02:00:21;15.00;;;4.80;;
52650;SDS011;38537;47.226;39.702;2023-07-08T02:02:49;22.08;;;5.05;;
52650;SDS011;38537;47.226;39.702;2023-07-08T02:05:19;19.88;;;4.97;;
52650;SDS011;38537;47.226;39.702;2023-07-08T02:07:47;15.90;;;5.10;;
52650;SDS011;38537;47.226;39.702;2023-07-08T02:10:15;13.00;;;4.88;;
52650;SDS011;38537;47.226;39.702;2023-07-08T02:12:44;16.95;;;5.03;;
52650;SDS011;38537;47.226;39.702;2023-07-08T02:15:11;19.85;;;5.28;;
52650;SDS011;38537;47.226;39.702;2023-07-08T02:17:39;20.80;;;4.80;;
52650;SDS011;38537;47.226;39.702;2023-07-08T02:20:08;15.13;;;4.90;;
52650;SDS011;38537;47.226;39.702;2023-07-08T02:22:36;18.80;;;4.60;;
52650;SDS011;38537;47.226;39.702;2023-07-08T02:25:03;18.13;;;4.90;;
52650;SDS011;38537;47.226;39.702;2023-07-08T02:27:32;15.85;;;4.38;;
52650;SDS011;38537;47.226;39.702;2023-07-08T02:29:59;18.23;;;4.90;;
52650;SDS011;38537;47.226;39.702;2023-07-08T02:32:31;14.77;;;4.28;;
52650;SDS011;38537;47.226;39.702;2023-07-08T02:35:02;17.58;;;4.65;;
52650;SDS011;38537;47.226;39.702;2023-07-08T02:37:30;15.98;;;4.30;;
52650;SDS011;38537;47.226;39.702;2023-07-08T02:39:59;14.07;;;4.30;;
52650;SDS011;38537;47.226;39.702;2023-07-08T02:42:31;14.88;;;4.32;;
52650;SDS011;38537;47.226;39.702;2023-07-08T02:44:59;26.80;;;4.70;;
52650;SDS011;38537;47.226;39.702;2023-07-08T02:47:29;15.75;;;4.70;;
52650;SDS011;38537;47.226;39.702;2023-07-08T02:49:57;12.88;;;4.15;;
52650;SDS011;38537;47.226;39.702;2023-07-08T02:52:24;15.30;;;4.50;;
52650;SDS011;38537;47.226;39.702;2023-07-08T02:54:54;11.60;;;4.28;;
52650;SDS011;38537;47.226;39.702;2023-07-08T02:57:21;14.77;;;4.60;;
52650;SDS011;38537;47.226;39.702;2023-07-08T02:59:49;9.93;;;4.13;;
52650;SDS011;38537;47.226;39.702;2023-07-08T03:02:19;7.97;;;3.83;;
52650;SDS011;38537;47.226;39.702;2023-07-08T03:04:47;12.82;;;4.03;;
52650;SDS011;38537;47.226;39.702;2023-07-08T03:07:17;15.35;;;4.57;;
52650;SDS011;38537;47.226;39.702;2023-07-08T03:09:44;11.68;;;3.90;;
52650;SDS011;38537;47.226;39.702;2023-07-08T03:12:11;10.65;;;3.83;;
52650;SDS011;38537;47.226;39.702;2023-07-08T03:14:39;11.00;;;3.90;;
52650;SDS011;38537;47.226;39.702;2023-07-08T03:17:07;13.93;;;4.28;;
52650;SDS011;38537;47.226;39.702;2023-07-08T03:19:36;16.23;;;5.00;;
52650;SDS011;38537;47.226;39.702;2023-07-08T03:22:03;16.27;;;4.63;;
52650;SDS011;38537;47.226;39.702;2023-07-08T03:24:32;10.02;;;4.00;;
52650;SDS011;38537;47.226;39.702;2023-07-08T03:27:02;10.02;;;4.15;;
52650;SDS011;38537;47.226;39.702;2023-07-08T03:29:35;10.88;;;3.97;;
52650;SDS011;38537;47.226;39.702;2023-07-08T03:32:03;12.20;;;4.07;;
52650;SDS011;38537;47.226;39.702;2023-07-08T03:34:31;13.05;;;4.60;;
52650;SDS011;38537;47.226;39.702;2023-07-08T03:36:58;24.27;;;5.85;;
52650;SDS011;38537;47.226;39.702;2023-07-08T03:39:26;19.45;;;4.93;;
52650;SDS011;38537;47.226;39.702;2023-07-08T03:41:54;21.15;;;5.93;;
52650;SDS011;38537;47.226;39.702;2023-07-08T03:44:21;28.83;;;5.55;;
52650;SDS011;38537;47.226;39.702;2023-07-08T03:46:49;24.20;;;4.80;;
52650;SDS011;38537;47.226;39.702;2023-07-08T03:49:19;20.80;;;5.13;;
52650;SDS011;38537;47.226;39.702;2023-07-08T03:51:52;21.58;;;4.85;;
52650;SDS011;38537;47.226;39.702;2023-07-08T03:54:21;12.07;;;4.88;;
52650;SDS011;38537;47.226;39.702;2023-07-08T03:56:55;13.68;;;4.43;;
52650;SDS011;38537;47.226;39.702;2023-07-08T03:59:25;14.32;;;4.10;;
52650;SDS011;38537;47.226;39.702;2023-07-08T04:01:56;10.40;;;4.30;;
52650;SDS011;38537;47.226;39.702;2023-07-08T04:04:26;16.00;;;4.30;;
52650;SDS011;38537;47.226;39.702;2023-07-08T04:06:54;24.30;;;4.82;;
52650;SDS011;38537;47.226;39.702;2023-07-08T04:09:21;16.77;;;4.63;;
52650;SDS011;38537;47.226;39.702;2023-07-08T04:11:49;15.10;;;4.60;;
52650;SDS011;38537;47.226;39.702;2023-07-08T04:14:16;13.77;;;4.68;;
52650;SDS011;38537;47.226;39.702;2023-07-08T04:16:49;20.92;;;4.80;;
52650;SDS011;38537;47.226;39.702;2023-07-08T04:19:21;21.02;;;5.20;;
52650;SDS011;38537;47.226;39.702;2023-07-08T04:21:49;19.35;;;4.72;;
52650;SDS011;38537;47.226;39.702;2023-07-08T04:24:17;18.30;;;5.32;;
52650;SDS011;38537;47.226;39.702;2023-07-08T04:26:45;13.85;;;4.80;;
52650;SDS011;38537;47.226;39.702;2023-07-08T04:29:16;20.33;;;5.00;;
52650;SDS011;38537;47.226;39.702;2023-07-08T04:31:45;18.75;;;5.13;;
52650;SDS011;38537;47.226;39.702;2023-07-08T04:34:14;17.85;;;5.10;;
52650;SDS011;38537;47.226;39.702;2023-07-08T04:36:42;15.55;;;5.35;;
52650;SDS011;38537;47.226;39.702;2023-07-08T04:39:10;17.20;;;4.82;;
52650;SDS011;38537;47.226;39.702;2023-07-08T04:41:39;15.50;;;5.68;;
52650;SDS011;38537;47.226;39.702;2023-07-08T04:44:12;16.67;;;5.57;;
52650;SDS011;38537;47.226;39.702;2023-07-08T04:46:47;18.10;;;5.40;;
52650;SDS011;38537;47.226;39.702;2023-07-08T04:49:21;17.90;;;5.70;;
52650;SDS011;38537;47.226;39.702;2023-07-08T04:51:50;15.80;;;5.78;;
52650;SDS011;38537;47.226;39.702;2023-07-08T04:54:19;20.40;;;5.72;;
52650;SDS011;38537;47.226;39.702;2023-07-08T04:56:47;17.42;;;6.05;;
52650;SDS011;38537;47.226;39.702;2023-07-08T04:59:17;18.27;;;6.30;;
52650;SDS011;38537;47.226;39.702;2023-07-08T05:01:45;16.25;;;6.15;;
52650;SDS011;38537;47.226;39.702;2023-07-08T05:04:16;21.58;;;5.75;;
52650;SDS011;38537;47.226;39.702;2023-07-08T05:06:44;24.40;;;6.30;;
52650;SDS011;38537;47.226;39.702;2023-07-08T05:09:12;18.10;;;6.00;;
52650;SDS011;38537;47.226;39.702;2023-07-08T05:11:43;21.65;;;5.63;;
52650;SDS011;38537;47.226;39.702;2023-07-08T05:14:11;15.52;;;6.10;;
52650;SDS011;38537;47.226;39.702;2023-07-08T05:16:40;17.80;;;5.80;;
52650;SDS011;38537;47.226;39.702;2023-07-08T05:19:08;17.10;;;6.05;;
52650;SDS011;38537;47.226;39.702;2023-07-08T05:21:36;17.08;;;6.15;;
52650;SDS011;38537;47.226;39.702;2023-07-08T05:24:06;23.08;;;6.13;;
52650;SDS011;38537;47.226;39.702;2023-07-08T05:26:35;18.73;;;6.13;;
52650;SDS011;38537;47.226;39.702;2023-07-08T05:29:03;19.23;;;6.28;;
52650;SDS011;38537;47.226;39.702;2023-07-08T05:31:32;15.68;;;6.20;;
52650;SDS011;38537;47.226;39.702;2023-07-08T05:34:03;26.35;;;6.40;;
52650;SDS011;38537;47.226;39.702;2023-07-08T05:36:31;24.25;;;6.03;;
52650;SDS011;38537;47.226;39.702;2023-07-08T05:38:58;17.73;;;5.82;;
52650;SDS011;38537;47.226;39.702;2023-07-08T05:41:25;12.20;;;5.28;;
52650;SDS011;38537;47.226;39.702;2023-07-08T05:43:53;11.20;;;5.13;;
52650;SDS011;38537;47.226;39.702;2023-07-08T05:46:21;13.52;;;4.90;;
52650;SDS011;38537;47.226;39.702;2023-07-08T05:48:48;14.38;;;4.95;;
52650;SDS011;38537;47.226;39.702;2023-07-08T05:51:17;20.42;;;5.82;;
52650;SDS011;38537;47.226;39.702;2023-07-08T05:53:45;25.65;;;5.88;;
52650;SDS011;38537;47.226;39.702;2023-07-08T05:56:12;22.05;;;6.25;;
52650;SDS011;38537;47.226;39.702;2023-07-08T05:58:40;15.57;;;6.20;;
52650;SDS011;38537;47.226;39.702;2023-07-08T06:01:07;20.90;;;5.93;;
52650;SDS011;38537;47.226;39.702;2023-07-08T06:03:36;17.23;;;5.80;;
52650;SDS011;38537;47.226;39.702;2023-07-08T06:06:04;17.88;;;5.72;;
52650;SDS011;38537;47.226;39.702;2023-07-08T06:08:34;14.10;;;5.25;;
52650;SDS011;38537;47.226;39.702;2023-07-08T06:11:02;20.00;;;6.20;;
52650;SDS011;38537;47.226;39.702;2023-07-08T06:13:29;20.05;;;5.82;;
52650;SDS011;38537;47.226;39.702;2023-07-08T06:15:57;19.80;;;5.65;;
52650;SDS011;38537;47.226;39.702;2023-07-08T06:18:24;18.80;;;5.68;;
52650;SDS011;38537;47.226;39.702;2023-07-08T06:20:56;15.20;;;5.50;;
52650;SDS011;38537;47.226;39.702;2023-07-08T06:23:25;16.65;;;5.60;;
52650;SDS011;38537;47.226;39.702;2023-07-08T06:25:53;15.82;;;5.72;;
52650;SDS011;38537;47.226;39.702;2023-07-08T06:28:21;15.55;;;5.45;;
52650;SDS011;38537;47.226;39.702;2023-07-08T06:30:48;15.32;;;5.18;;
52650;SDS011;38537;47.226;39.702;2023-07-08T06:33:16;14.23;;;5.15;;
52650;SDS011;38537;47.226;39.702;2023-07-08T06:35:44;15.32;;;5.72;;
52650;SDS011;38537;47.226;39.702;2023-07-08T06:38:12;15.45;;;5.45;;
52650;SDS011;38537;47.226;39.702;2023-07-08T06:40:39;13.13;;;5.18;;
52650;SDS011;38537;47.226;39.702;2023-07-08T06:43:07;13.90;;;5.20;;
52650;SDS011;38537;47.226;39.702;2023-07-08T06:45:55;12.18;;;4.85;;
52650;SDS011;38537;47.226;39.702;2023-07-08T06:48:23;12.43;;;5.30;;
52650;SDS011;38537;47.226;39.702;2023-07-08T06:50:51;26.63;;;14.75;;
52650;SDS011;38537;47.226;39.702;2023-07-08T06:53:18;23.23;;;10.80;;
52650;SDS011;38537;47.226;39.702;2023-07-08T06:55:49;17.55;;;7.40;;
52650;SDS011;38537;47.226;39.702;2023-07-08T06:58:16;20.60;;;6.70;;
52650;SDS011;38537;47.226;39.702;2023-07-08T07:00:46;18.00;;;6.43;;
52650;SDS011;38537;47.226;39.702;2023-07-08T07:03:13;19.75;;;6.35;;
52650;SDS011;38537;47.226;39.702;2023-07-08T07:05:41;16.98;;;6.63;;
52650;SDS011;38537;47.226;39.702;2023-07-08T07:08:09;20.20;;;6.00;;
52650;SDS011;38537;47.226;39.702;2023-07-08T07:10:37;14.85;;;5.75;;
52650;SDS011;38537;47.226;39.702;2023-07-08T07:13:04;18.33;;;6.10;;
52650;SDS011;38537;47.226;39.702;2023-07-08T07:15:32;17.33;;;6.15;;
52650;SDS011;38537;47.226;39.702;2023-07-08T07:17:59;22.80;;;6.47;;
52650;SDS011;38537;47.226;39.702;2023-07-08T07:20:27;18.02;;;6.05;;
52650;SDS011;38537;47.226;39.702;2023-07-08T07:22:56;16.92;;;6.05;;
52650;SDS011;38537;47.226;39.702;2023-07-08T07:25:23;17.25;;;6.22;;
52650;SDS011;38537;47.226;39.702;2023-07-08T07:27:50;22.90;;;6.45;;
52650;SDS011;38537;47.226;39.702;2023-07-08T07:30:18;16.45;;;6.10;;
52650;SDS011;38537;47.226;39.702;2023-07-08T07:32:46;20.25;;;6.80;;
52650;SDS011;38537;47.226;39.702;2023-07-08T07:35:16;18.98;;;6.30;;
52650;SDS011;38537;47.226;39.702;2023-07-08T07:37:43;22.33;;;7.20;;
52650;SDS011;38537;47.226;39.702;2023-07-08T07:40:11;17.77;;;6.03;;
52650;SDS011;38537;47.226;39.702;2023-07-08T07:42:42;23.35;;;6.03;;
52650;SDS011;38537;47.226;39.702;2023-07-08T07:45:11;15.35;;;6.72;;
52650;SDS011;38537;47.226;39.702;2023-07-08T07:47:39;19.75;;;6.57;;
52650;SDS011;38537;47.226;39.702;2023-07-08T07:50:08;20.73;;;6.40;;
52650;SDS011;38537;47.226;39.702;2023-07-08T07:52:37;12.77;;;5.85;;
52650;SDS011;38537;47.226;39.702;2023-07-08T07:55:04;12.77;;;5.65;;
52650;SDS011;38537;47.226;39.702;2023-07-08T07:57:32;18.00;;;6.30;;
52650;SDS011;38537;47.226;39.702;2023-07-08T08:00:00;13.50;;;5.22;;
52650;SDS011;38537;47.226;39.702;2023-07-08T08:02:39;14.98;;;6.10;;
52650;SDS011;38537;47.226;39.702;2023-07-08T08:05:07;14.85;;;5.78;;
52650;SDS011;38537;47.226;39.702;2023-07-08T08:07:35;22.80;;;6.10;;
52650;SDS011;38537;47.226;39.702;2023-07-08T08:10:05;15.88;;;6.20;;
52650;SDS011;38537;47.226;39.702;2023-07-08T08:12:33;19.20;;;6.00;;
52650;SDS011;38537;47.226;39.702;2023-07-08T08:15:17;16.17;;;6.60;;
52650;SDS011;38537;47.226;39.702;2023-07-08T08:17:44;19.63;;;6.10;;
52650;SDS011;38537;47.226;39.702;2023-07-08T08:20:16;15.73;;;6.43;;
52650;SDS011;38537;47.226;39.702;2023-07-08T08:22:43;15.23;;;6.07;;
52650;SDS011;38537;47.226;39.702;2023-07-08T08:25:10;25.40;;;6.25;;
52650;SDS011;38537;47.226;39.702;2023-07-08T08:27:38;19.52;;;5.80;;
52650;SDS011;38537;47.226;39.702;2023-07-08T08:30:06;14.82;;;6.10;;
52650;SDS011;38537;47.226;39.702;2023-07-08T08:32:34;21.02;;;6.07;;
52650;SDS011;38537;47.226;39.702;2023-07-08T08:35:01;15.15;;;6.00;;
52650;SDS011;38537;47.226;39.702;2023-07-08T08:37:29;22.23;;;6.32;;
52650;SDS011;38537;47.226;39.702;2023-07-08T08:39:57;27.35;;;7.80;;
52650;SDS011;38537;47.226;39.702;2023-07-08T08:42:30;21.88;;;6.60;;
52650;SDS011;38537;47.226;39.702;2023-07-08T08:45:02;22.70;;;6.78;;
52650;SDS011;38537;47.226;39.702;2023-07-08T08:47:38;18.73;;;6.82;;
52650;SDS011;38537;47.226;39.702;2023-07-08T08:52:57;28.83;;;9.02;;
52650;SDS011;38537;47.226;39.702;2023-07-08T08:55:28;22.80;;;8.43;;
52650;SDS011;38537;47.226;39.702;2023-07-08T09:03:33;18.40;;;6.90;;
52650;SDS011;38537;47.226;39.702;2023-07-08T09:06:40;21.13;;;6.70;;
52650;SDS011;38537;47.226;39.702;2023-07-08T09:09:02;25.88;;;6.95;;
52650;SDS011;38537;47.226;39.702;2023-07-08T09:14:26;18.33;;;7.22;;
52650;SDS011;38537;47.226;39.702;2023-07-08T09:19:41;21.88;;;6.95;;
52650;SDS011;38537;47.226;39.702;2023-07-08T09:25:32;20.65;;;6.00;;
52650;SDS011;38537;47.226;39.702;2023-07-08T09:27:57;22.45;;;5.63;;
52650;SDS011;38537;47.226;39.702;2023-07-08T09:30:26;22.88;;;5.50;;
52650;SDS011;38537;47.226;39.702;2023-07-08T09:32:57;23.85;;;5.88;;
52650;SDS011;38537;47.226;39.702;2023-07-08T09:35:38;19.92;;;5.78;;
52650;SDS011;38537;47.226;39.702;2023-07-08T09:38:09;18.83;;;5.43;;
52650;SDS011;38537;47.226;39.702;2023-07-08T09:40:42;17.15;;;5.63;;
52650;SDS011;38537;47.226;39.702;2023-07-08T09:43:20;28.42;;;6.22;;
52650;SDS011;38537;47.226;39.702;2023-07-08T09:45:57;19.25;;;5.68;;
52650;SDS011;38537;47.226;39.702;2023-07-08T09:48:30;24.98;;;6.18;;
52650;SDS011;38537;47.226;39.702;2023-07-08T09:51:03;14.82;;;5.95;;
52650;SDS011;38537;47.226;39.702;2023-07-08T09:53:31;24.00;;;6.63;;
52650;SDS011;38537;47.226;39.702;2023-07-08T09:56:04;33.15;;;6.63;;
52650;SDS011;38537;47.226;39.702;2023-07-08T09:58:36;20.60;;;6.07;;
52650;SDS011;38537;47.226;39.702;2023-07-08T10:01:11;21.98;;;6.72;;
52650;SDS011;38537;47.226;39.702;2023-07-08T10:03:42;21.52;;;6.30;;
52650;SDS011;38537;47.226;39.702;2023-07-08T10:06:31;17.63;;;5.78;;
52650;SDS011;38537;47.226;39.702;2023-07-08T10:09:05;15.75;;;5.35;;
52650;SDS011;38537;47.226;39.702;2023-07-08T10:11:44;19.83;;;6.85;;
52650;SDS011;38537;47.226;39.702;2023-07-08T10:14:32;20.75;;;6.63;;
52650;SDS011;38537;47.226;39.702;2023-07-08T10:17:05;16.75;;;5.88;;
52650;SDS011;38537;47.226;39.702;2023-07-08T10:19:33;18.30;;;8.15;;
52650;SDS011;38537;47.226;39.702;2023-07-08T10:25:03;14.00;;;6.60;;
52650;SDS011;38537;47.226;39.702;2023-07-08T10:27:59;15.75;;;6.32;;
52650;SDS011;38537;47.226;39.702;2023-07-08T10:31:16;16.60;;;6.82;;
52650;SDS011;38537;47.226;39.702;2023-07-08T10:36:28;17.60;;;6.60;;
52650;SDS011;38537;47.226;39.702;2023-07-08T10:39:20;12.52;;;5.82;;
52650;SDS011;38537;47.226;39.702;2023-07-08T10:42:38;20.83;;;8.13;;
52650;SDS011;38537;47.226;39.702;2023-07-08T10:45:18;18.63;;;7.50;;
52650;SDS011;38537;47.226;39.702;2023-07-08T10:48:06;23.05;;;8.07;;
52650;SDS011;38537;47.226;39.702;2023-07-08T10:50:57;21.08;;;6.95;;
52650;SDS011;38537;47.226;39.702;2023-07-08T10:53:59;13.30;;;6.35;;
52650;SDS011;38537;47.226;39.702;2023-07-08T10:56:45;11.20;;;6.32;;
52650;SDS011;38537;47.226;39.702;2023-07-08T11:05:17;13.75;;;5.20;;
52650;SDS011;38537;47.226;39.702;2023-07-08T11:10:56;9.43;;;4.95;;
52650;SDS011;38537;47.226;39.702;2023-07-08T11:13:52;14.90;;;5.43;;
52650;SDS011;38537;47.226;39.702;2023-07-08T11:16:41;13.18;;;5.40;;
52650;SDS011;38537;47.226;39.702;2023-07-08T11:19:19;19.73;;;5.47;;
52650;SDS011;38537;47.226;39.702;2023-07-08T11:21:53;11.25;;;4.95;;
52650;SDS011;38537;47.226;39.702;2023-07-08T11:24:44;13.50;;;5.50;;
52650;SDS011;38537;47.226;39.702;2023-07-08T11:27:21;12.63;;;6.47;;
52650;SDS011;38537;47.226;39.702;2023-07-08T11:29:57;12.13;;;6.60;;
52650;SDS011;38537;47.226;39.702;2023-07-08T11:32:31;12.88;;;6.70;;
52650;SDS011;38537;47.226;39.702;2023-07-08T11:35:02;10.55;;;6.80;;
52650;SDS011;38537;47.226;39.702;2023-07-08T11:37:34;12.20;;;6.93;;
52650;SDS011;38537;47.226;39.702;2023-07-08T11:40:15;14.35;;;6.82;;
52650;SDS011;38537;47.226;39.702;2023-07-08T11:42:53;12.07;;;6.20;;
52650;SDS011;38537;47.226;39.702;2023-07-08T11:45:33;16.17;;;7.20;;
52650;SDS011;38537;47.226;39.702;2023-07-08T11:48:11;12.88;;;6.90;;
52650;SDS011;38537;47.226;39.702;2023-07-08T11:50:43;14.07;;;6.65;;
52650;SDS011;38537;47.226;39.702;2023-07-08T11:58:52;15.15;;;7.30;;
52650;SDS011;38537;47.226;39.702;2023-07-08T12:01:37;22.27;;;8.00;;
52650;SDS011;38537;47.226;39.702;2023-07-08T12:07:02;14.77;;;7.70;;
52650;SDS011;38537;47.226;39.702;2023-07-08T12:09:35;15.88;;;8.10;;
52650;SDS011;38537;47.226;39.702;2023-07-08T12:14:34;17.38;;;7.82;;
52650;SDS011;38537;47.226;39.702;2023-07-08T12:17:04;15.57;;;7.43;;
52650;SDS011;38537;47.226;39.702;2023-07-08T12:19:41;17.17;;;7.85;;
52650;SDS011;38537;47.226;39.702;2023-07-08T12:22:11;20.40;;;7.68;;
52650;SDS011;38537;47.226;39.702;2023-07-08T12:24:39;16.15;;;7.30;;
52650;SDS011;38537;47.226;39.702;2023-07-08T12:27:09;14.98;;;7.20;;
52650;SDS011;38537;47.226;39.702;2023-07-08T12:29:40;16.88;;;7.65;;
52650;SDS011;38537;47.226;39.702;2023-07-08T12:32:09;16.30;;;7.43;;
52650;SDS011;38537;47.226;39.702;2023-07-08T12:34:39;24.98;;;8.55;;
52650;SDS011;38537;47.226;39.702;2023-07-08T12:37:10;15.95;;;7.90;;
52650;SDS011;38537;47.226;39.702;2023-07-08T12:39:39;23.50;;;8.73;;
52650;SDS011;38537;47.226;39.702;2023-07-08T12:42:12;18.38;;;8.50;;
52650;SDS011;38537;47.226;39.702;2023-07-08T12:44:41;16.50;;;8.73;;
52650;SDS011;38537;47.226;39.702;2023-07-08T12:47:10;14.32;;;7.70;;
52650;SDS011;38537;47.226;39.702;2023-07-08T12:49:38;15.10;;;8.57;;
52650;SDS011;38537;47.226;39.702;2023-07-08T12:52:17;15.85;;;8.20;;
52650;SDS011;38537;47.226;39.702;2023-07-08T12:54:49;20.00;;;8.60;;
52650;SDS011;38537;47.226;39.702;2023-07-08T12:57:17;16.55;;;7.38;;
52650;SDS011;38537;47.226;39.702;2023-07-08T12:59:45;16.35;;;8.40;;
52650;SDS011;38537;47.226;39.702;2023-07-08T13:02:17;17.90;;;8.38;;
52650;SDS011;38537;47.226;39.702;2023-07-08T13:04:47;14.20;;;7.13;;
52650;SDS011;38537;47.226;39.702;2023-07-08T13:07:32;19.48;;;8.30;;
52650;SDS011;38537;47.226;39.702;2023-07-08T13:10:01;16.00;;;6.13;;
52650;SDS011;38537;47.226;39.702;2023-07-08T13:12:31;16.48;;;7.40;;
52650;SDS011;38537;47.226;39.702;2023-07-08T13:15:02;21.48;;;8.15;;
52650;SDS011;38537;47.226;39.702;2023-07-08T13:17:32;20.70;;;10.35;;
52650;SDS011;38537;47.226;39.702;2023-07-08T13:20:01;16.92;;;7.60;;
52650;SDS011;38537;47.226;39.702;2023-07-08T13:22:29;14.50;;;9.80;;
52650;SDS011;38537;47.226;39.702;2023-07-08T13:25:01;18.17;;;8.65;;
52650;SDS011;38537;47.226;39.702;2023-07-08T13:27:30;18.17;;;9.02;;
52650;SDS011;38537;47.226;39.702;2023-07-08T13:30:06;14.35;;;8.18;;
52650;SDS011;38537;47.226;39.702;2023-07-08T13:32:59;15.07;;;8.23;;
52650;SDS011;38537;47.226;39.702;2023-07-08T13:38:05;14.15;;;7.97;;
52650;SDS011;38537;47.226;39.702;2023-07-08T13:40:40;17.63;;;8.40;;
52650;SDS011;38537;47.226;39.702;2023-07-08T13:43:11;14.52;;;9.00;;
52650;SDS011;38537;47.226;39.702;2023-07-08T13:45:44;20.33;;;9.23;;
52650;SDS011;38537;47.226;39.702;2023-07-08T13:48:18;15.45;;;9.38;;
52650;SDS011;38537;47.226;39.702;2023-07-08T13:50:53;16.38;;;9.00;;
52650;SDS011;38537;47.226;39.702;2023-07-08T13:53:27;18.08;;;9.00;;
52650;SDS011;38537;47.226;39.702;2023-07-08T13:56:11;13.10;;;7.78;;
52650;SDS011;38537;47.226;39.702;2023-07-08T13:58:51;15.80;;;8.80;;
52650;SDS011;38537;47.226;39.702;2023-07-08T14:01:28;16.35;;;9.38;;
52650;SDS011;38537;47.226;39.702;2023-07-08T14:03:57;13.65;;;10.20;;
52650;SDS011;38537;47.226;39.702;2023-07-08T14:06:31;18.92;;;11.23;;
52650;SDS011;38537;47.226;39.702;2023-07-08T14:09:14;18.05;;;9.50;;
52650;SDS011;38537;47.226;39.702;2023-07-08T14:11:43;20.17;;;12.25;;
52650;SDS011;38537;47.226;39.702;2023-07-08T14:14:12;18.30;;;11.75;;
52650;SDS011;38537;47.226;39.702;2023-07-08T14:16:43;18.10;;;11.35;;
52650;SDS011;38537;47.226;39.702;2023-07-08T14:19:17;21.38;;;10.77;;
52650;SDS011;38537;47.226;39.702;2023-07-08T14:21:54;21.50;;;11.27;;
52650;SDS011;38537;47.226;39.702;2023-07-08T14:24:24;17.65;;;10.50;;
52650;SDS011;38537;47.226;39.702;2023-07-08T14:26:52;20.92;;;13.80;;
52650;SDS011;38537;47.226;39.702;2023-07-08T14:29:20;22.13;;;13.10;;
52650;SDS011;38537;47.226;39.702;2023-07-08T14:31:49;22.48;;;12.65;;
52650;SDS011;38537;47.226;39.702;2023-07-08T14:34:20;21.95;;;11.43;;
52650;SDS011;38537;47.226;39.702;2023-07-08T14:36:52;20.73;;;11.02;;
52650;SDS011;38537;47.226;39.702;2023-07-08T14:39:21;17.27;;;10.07;;
52650;SDS011;38537;47.226;39.702;2023-07-08T14:41:49;16.35;;;8.70;;
52650;SDS011;38537;47.226;39.702;2023-07-08T14:46:50;22.55;;;9.43;;
52650;SDS011;38537;47.226;39.702;2023-07-08T14:49:22;17.88;;;9.95;;
52650;SDS011;38537;47.226;39.702;2023-07-08T14:51:52;17.58;;;8.85;;
52650;SDS011;38537;47.226;39.702;2023-07-08T14:54:20;24.90;;;9.38;;
52650;SDS011;38537;47.226;39.702;2023-07-08T14:56:48;17.38;;;9.13;;
52650;SDS011;38537;47.226;39.702;2023-07-08T14:59:21;17.77;;;8.88;;
52650;SDS011;38537;47.226;39.702;2023-07-08T15:01:51;18.42;;;7.72;;
52650;SDS011;38537;47.226;39.702;2023-07-08T15:04:20;20.67;;;8.30;;
52650;SDS011;38537;47.226;39.702;2023-07-08T15:06:47;17.67;;;8.07;;
52650;SDS011;38537;47.226;39.702;2023-07-08T15:09:17;17.98;;;8.00;;
52650;SDS011;38537;47.226;39.702;2023-07-08T15:11:45;15.98;;;8.07;;
52650;SDS011;38537;47.226;39.702;2023-07-08T15:14:22;23.75;;;8.52;;
52650;SDS011;38537;47.226;39.702;2023-07-08T15:20:11;19.40;;;8.40;;
52650;SDS011;38537;47.226;39.702;2023-07-08T15:23:10;16.67;;;8.38;;
52650;SDS011;38537;47.226;39.702;2023-07-08T15:26:10;24.33;;;9.43;;
52650;SDS011;38537;47.226;39.702;2023-07-08T15:31:21;21.38;;;9.57;;
52650;SDS011;38537;47.226;39.702;2023-07-08T15:33:52;18.73;;;9.40;;
52650;SDS011;38537;47.226;39.702;2023-07-08T15:36:23;21.85;;;9.35;;
52650;SDS011;38537;47.226;39.702;2023-07-08T15:38:50;20.08;;;10.10;;
52650;SDS011;38537;47.226;39.702;2023-07-08T15:43:49;19.33;;;9.77;;
52650;SDS011;38537;47.226;39.702;2023-07-08T15:46:20;14.68;;;9.35;;
52650;SDS011;38537;47.226;39.702;2023-07-08T15:48:50;18.60;;;9.50;;